createdAt,value
2023-08-29T00:04:04.409Z,47.47
2023-08-29T00:09:07.373Z,47.67
2023-08-29T00:14:09.949Z,48.00
2023-08-29T00:19:13.188Z,48.79
2023-08-29T00:24:16.164Z,48.34
2023-08-29T00:29:18.723Z,48.91
2023-08-29T00:34:21.221Z,49.48
2023-08-29T00:39:24.975Z,49.92
2023-08-29T00:44:27.858Z,50.91
2023-08-29T00:49:31.190Z,51.30
2023-08-29T00:54:34.271Z,51.92
2023-08-29T00:59:37.174Z,52.45
2023-08-29T01:04:39.639Z,53.29
2023-08-29T01:09:42.161Z,54.45
2023-08-29T01:15:01.096Z,55.67
2023-08-29T01:20:06.808Z,56.70
2023-08-29T01:25:31.652Z,57.22
2023-08-29T01:30:35.615Z,57.94
2023-08-29T01:35:43.912Z,58.03
2023-08-29T01:40:47.059Z,58.24
2023-08-29T01:45:49.604Z,58.54
2023-08-29T01:50:52.681Z,58.04
2023-08-29T01:55:56.786Z,57.65
2023-08-29T02:01:09.761Z,57.54
2023-08-29T02:06:22.383Z,57.01
2023-08-29T02:11:24.992Z,57.33
2023-08-29T02:16:27.577Z,57.26
2023-08-29T02:21:30.216Z,57.30
2023-08-29T02:26:32.719Z,57.41
2023-08-29T02:31:35.307Z,57.14
2023-08-29T02:36:37.833Z,56.63
2023-08-29T02:41:40.353Z,55.50
2023-08-29T02:46:42.929Z,53.98
2023-08-29T02:51:45.497Z,52.39
2023-08-29T02:56:48.001Z,51.51
2023-08-29T03:01:50.526Z,50.65
2023-08-29T03:06:53.339Z,49.88
2023-08-29T03:11:56.489Z,48.45
2023-08-29T03:16:59.030Z,47.31
2023-08-29T03:22:01.551Z,47.47
2023-08-29T03:27:05.575Z,47.61
2023-08-29T03:32:08.138Z,47.01
2023-08-29T03:37:10.633Z,46.34
2023-08-29T03:42:13.198Z,45.28
2023-08-29T03:47:15.672Z,44.37
2023-08-29T03:52:25.787Z,44.07
2023-08-29T03:57:28.851Z,44.03
2023-08-29T04:02:31.433Z,42.45
2023-08-29T04:07:33.919Z,40.43
2023-08-29T04:12:36.410Z,39.73
2023-08-29T04:17:39.011Z,39.35
2023-08-29T04:22:41.535Z,37.98
2023-08-29T04:27:45.412Z,37.64
2023-08-29T04:32:52.156Z,38.63
2023-08-29T04:37:55.933Z,39.89
2023-08-29T04:42:58.508Z,40.10
2023-08-29T04:48:01.072Z,40.28
2023-08-29T04:53:05.337Z,38.61
2023-08-29T04:58:08.380Z,35.89
2023-08-29T05:03:11.297Z,34.47
2023-08-29T05:08:13.910Z,32.54
2023-08-29T05:13:16.565Z,30.57
2023-08-29T05:18:19.223Z,28.54
2023-08-29T05:23:21.701Z,26.10
2023-08-29T05:28:24.297Z,24.88
2023-08-29T05:33:26.769Z,24.11
2023-08-29T05:38:29.447Z,22.51
2023-08-29T05:43:32.214Z,21.45
2023-08-29T05:48:34.736Z,20.52
2023-08-29T05:53:37.597Z,19.98
2023-08-29T05:58:39.917Z,19.72
2023-08-29T06:03:42.669Z,19.42
2023-08-29T06:08:46.049Z,18.89
2023-08-29T06:13:48.600Z,18.22
2023-08-29T06:18:51.185Z,18.19
2023-08-29T06:23:53.776Z,18.48
2023-08-29T06:28:56.259Z,18.01
2023-08-29T06:33:58.857Z,18.01
2023-08-29T06:39:02.422Z,17.61
2023-08-29T06:44:05.187Z,16.88
2023-08-29T06:49:09.194Z,17.15
2023-08-29T06:54:11.775Z,17.85
2023-08-29T06:59:14.124Z,17.93
2023-08-29T07:04:18.117Z,17.82
2023-08-29T07:09:20.598Z,17.19
2023-08-29T07:14:23.041Z,17.52
2023-08-29T07:19:26.072Z,16.86
2023-08-29T07:24:28.567Z,17.59
2023-08-29T07:29:31.614Z,17.33
2023-08-29T07:34:34.227Z,17.06
2023-08-29T07:39:36.789Z,16.91
2023-08-29T07:44:39.261Z,16.88
2023-08-29T07:49:41.775Z,16.54
2023-08-29T07:54:44.239Z,16.65
2023-08-29T07:59:46.832Z,15.78
2023-08-29T08:04:49.366Z,15.38
2023-08-29T08:09:51.711Z,15.48
2023-08-29T08:14:54.947Z,15.71
2023-08-29T08:19:57.756Z,16.63
2023-08-29T08:25:00.264Z,15.80
2023-08-29T08:30:02.916Z,15.76
2023-08-29T08:35:08.140Z,15.81
2023-08-29T08:40:12.545Z,15.14
2023-08-29T08:45:16.116Z,15.35
2023-08-29T08:50:19.157Z,15.33
2023-08-29T08:55:21.749Z,14.84
2023-08-29T09:00:24.249Z,14.82
2023-08-29T09:05:26.972Z,14.89
2023-08-29T09:10:34.814Z,14.76
2023-08-29T09:15:39.631Z,14.71
2023-08-29T09:20:45.275Z,14.49
2023-08-29T09:25:54.583Z,13.71
2023-08-29T09:31:05.743Z,14.75
2023-08-29T09:36:08.822Z,14.26
2023-08-29T09:41:17.505Z,14.66
2023-08-29T09:46:26.029Z,14.44
2023-08-29T09:51:31.535Z,14.13
2023-08-29T09:56:35.919Z,13.91
2023-08-29T10:01:41.047Z,14.24
2023-08-29T10:06:46.457Z,13.95
2023-08-29T10:11:54.853Z,14.11
2023-08-29T10:17:00.278Z,14.00
2023-08-29T10:22:03.646Z,14.12
2023-08-29T10:27:06.198Z,14.02
2023-08-29T10:32:09.188Z,14.65
2023-08-29T10:37:20.729Z,14.04
2023-08-29T10:42:23.311Z,15.03
2023-08-29T10:47:28.323Z,15.64
2023-08-29T10:52:41.735Z,14.86
2023-08-29T10:57:44.361Z,15.39
2023-08-29T11:02:46.888Z,16.44
2023-08-29T11:07:49.518Z,16.52
2023-08-29T11:13:09.528Z,16.88
2023-08-29T11:18:22.565Z,17.77
2023-08-29T11:23:27.084Z,18.73
2023-08-29T11:28:32.377Z,19.03
2023-08-29T11:33:36.686Z,19.01
2023-08-29T11:38:39.369Z,20.28
2023-08-29T11:44:51.486Z,20.40
2023-08-29T11:49:15.126Z,20.55
2023-08-29T11:54:46.678Z,21.03
2023-08-29T11:59:51.935Z,20.74
2023-08-29T12:04:58.456Z,20.94
2023-08-29T12:10:12.147Z,21.00
2023-08-29T12:15:27.638Z,21.66
2023-08-29T12:20:35.135Z,21.34
2023-08-29T12:25:37.652Z,21.82
2023-08-29T12:30:40.123Z,22.15
2023-08-29T12:35:42.579Z,21.72
2023-08-29T12:40:45.620Z,22.46
2023-08-29T12:45:58.084Z,22.99
2023-08-29T12:51:02.685Z,23.75
2023-08-29T12:56:05.385Z,23.24
2023-08-29T13:01:08.039Z,23.78
2023-08-29T13:06:10.694Z,23.69
2023-08-29T13:11:13.284Z,24.57
2023-08-29T13:16:19.463Z,24.07
2023-08-29T13:21:22.044Z,24.55
2023-08-29T13:26:24.855Z,24.60
2023-08-29T13:31:27.548Z,25.16
2023-08-29T13:36:32.740Z,25.54
2023-08-29T13:41:35.643Z,25.42
2023-08-29T13:46:38.480Z,25.35
2023-08-29T13:51:41.095Z,25.77
2023-08-29T13:56:45.775Z,26.28
2023-08-29T14:01:48.270Z,26.08
2023-08-29T14:06:50.895Z,25.60
2023-08-29T14:11:53.394Z,26.34
2023-08-29T14:16:56.081Z,29.94
2023-08-29T14:21:58.642Z,28.28
2023-08-29T14:27:01.132Z,28.01
2023-08-29T14:32:03.672Z,27.30
2023-08-29T14:37:06.447Z,27.28
2023-08-29T14:42:09.548Z,27.59
2023-08-29T14:47:12.095Z,27.93
2023-08-29T14:52:14.498Z,28.00
2023-08-29T14:57:17.118Z,28.11
2023-08-29T15:02:20.624Z,28.26
2023-08-29T15:07:24.980Z,28.40
2023-08-29T15:12:27.460Z,28.84
2023-08-29T15:17:31.276Z,28.96
2023-08-29T15:22:33.886Z,29.31
2023-08-29T15:32:39.486Z,29.66
2023-08-29T15:37:42.013Z,29.60
2023-08-29T15:42:45.474Z,29.74
2023-08-29T15:47:48.090Z,30.25
2023-08-29T15:52:50.598Z,30.62
2023-08-29T15:57:53.111Z,31.02
2023-08-29T16:02:55.695Z,31.31
2023-08-29T16:07:58.669Z,31.71
2023-08-29T16:13:01.674Z,31.86
2023-08-29T16:18:05.844Z,32.62
2023-08-29T16:23:08.978Z,32.95
2023-08-29T16:28:13.826Z,33.37
2023-08-29T16:33:16.602Z,33.54
2023-08-29T16:38:19.280Z,33.86
2023-08-29T16:43:21.927Z,34.08
2023-08-29T16:48:24.523Z,34.37
2023-08-29T16:53:27.149Z,34.51
2023-08-29T16:58:29.940Z,34.61
2023-08-29T17:03:32.711Z,34.84
2023-08-29T17:08:35.454Z,35.58
2023-08-29T17:13:37.959Z,36.21
2023-08-29T17:18:40.562Z,36.05
2023-08-29T17:23:43.124Z,35.96
2023-08-29T17:28:45.633Z,36.46
2023-08-29T17:33:48.233Z,36.57
2023-08-29T17:38:50.769Z,36.38
2023-08-29T17:43:53.236Z,36.58
2023-08-29T17:48:55.754Z,37.12
2023-08-29T17:53:58.242Z,37.81
2023-08-29T17:59:00.756Z,38.37
2023-08-29T18:04:08.364Z,38.58
2023-08-29T18:09:10.848Z,39.13
2023-08-29T18:14:13.375Z,39.64
2023-08-29T18:19:18.943Z,39.96
2023-08-29T18:24:21.698Z,39.99
2023-08-29T18:29:24.176Z,40.44
2023-08-29T18:34:26.620Z,40.76
2023-08-29T18:39:29.070Z,41.08
2023-08-29T18:44:31.635Z,41.21
2023-08-29T18:49:35.773Z,41.60
2023-08-29T18:54:38.261Z,42.24
2023-08-29T18:59:40.738Z,42.59
2023-08-29T19:04:44.414Z,43.05
2023-08-29T19:09:46.879Z,43.50
2023-08-29T19:14:49.492Z,43.79
2023-08-29T19:19:52.061Z,43.98
2023-08-29T19:24:55.781Z,44.35
2023-08-29T19:29:58.489Z,44.33
2023-08-29T19:35:00.977Z,44.76
2023-08-29T19:40:03.848Z,44.68
2023-08-29T19:45:07.239Z,44.96
2023-08-29T19:50:10.587Z,44.97
2023-08-29T19:55:13.083Z,45.13
2023-08-29T20:00:16.101Z,45.74
2023-08-29T20:05:18.626Z,45.37
2023-08-29T20:10:21.108Z,45.75
2023-08-29T20:15:23.561Z,45.93
2023-08-29T20:20:27.006Z,46.22
2023-08-29T20:25:29.824Z,46.35
2023-08-29T20:30:35.588Z,46.37
2023-08-29T20:35:38.842Z,46.48
2023-08-29T20:40:42.860Z,46.56
2023-08-29T20:45:45.387Z,46.92
2023-08-29T20:50:51.250Z,46.87
2023-08-29T20:55:53.804Z,47.10
2023-08-29T21:06:20.514Z,47.04
2023-08-29T21:11:23.114Z,47.42
2023-08-29T21:16:25.758Z,47.48
2023-08-29T21:21:28.314Z,47.38
2023-08-29T21:26:31.187Z,47.80
2023-08-29T21:31:33.760Z,48.07
2023-08-29T21:36:38.571Z,48.10
2023-08-29T21:41:41.577Z,47.97
2023-08-29T21:46:44.984Z,48.31
2023-08-29T21:51:48.497Z,48.38
2023-08-29T21:56:51.124Z,48.46
2023-08-29T22:01:54.918Z,48.52
2023-08-29T22:06:57.493Z,48.81
2023-08-29T22:11:59.979Z,48.78
2023-08-29T22:17:02.970Z,48.82
2023-08-29T22:22:05.472Z,48.83
2023-08-29T22:27:08.134Z,49.12
2023-08-29T22:32:10.644Z,49.35
2023-08-29T22:37:16.340Z,49.13
2023-08-29T22:42:18.914Z,49.30
2023-08-29T22:47:21.440Z,49.13
2023-08-29T22:52:24.781Z,49.10
2023-08-29T22:57:27.270Z,49.65
2023-08-29T23:02:29.901Z,50.04
2023-08-29T23:07:32.660Z,50.10
2023-08-29T23:12:36.176Z,50.12
2023-08-29T23:17:38.727Z,50.44
2023-08-29T23:22:41.253Z,50.42
2023-08-29T23:27:44.143Z,50.80
2023-08-29T23:32:49.422Z,50.70
2023-08-29T23:37:52.069Z,51.09
2023-08-29T23:42:54.775Z,51.54
2023-08-29T23:47:57.281Z,51.09
2023-08-29T23:53:00.465Z,51.87
2023-08-29T23:58:03.024Z,51.77
